createdAt,value
2018-04-15T00:00:30.386Z,7.17
2018-04-15T00:02:57.453Z,8.23
2018-04-15T00:05:24.522Z,7.17
2018-04-15T00:07:51.551Z,7.77
2018-04-15T00:10:17.858Z,7.70
2018-04-15T00:12:44.149Z,7.53
2018-04-15T00:15:11.204Z,7.20
2018-04-15T00:17:37.593Z,8.53
2018-04-15T00:20:04.015Z,6.83
2018-04-15T00:22:30.293Z,4.80
2018-04-15T00:24:56.639Z,4.77
2018-04-15T00:27:27.266Z,6.67
2018-04-15T00:29:53.638Z,3.70
2018-04-15T00:32:21.418Z,3.93
2018-04-15T00:34:47.662Z,4.20
2018-04-15T00:37:13.948Z,4.20
2018-04-15T00:39:40.960Z,3.63
2018-04-15T00:42:07.255Z,3.57
2018-04-15T00:44:33.577Z,3.60
2018-04-15T00:47:00.634Z,4.30
2018-04-15T00:49:27.617Z,3.90
2018-04-15T00:51:54.005Z,3.70
2018-04-15T00:54:20.302Z,3.13
2018-04-15T00:56:47.572Z,4.30
2018-04-15T00:59:13.898Z,3.77
2018-04-15T01:01:40.274Z,3.67
2018-04-15T01:04:06.694Z,4.10
2018-04-15T01:06:33.986Z,3.37
2018-04-15T01:09:00.361Z,3.83
2018-04-15T01:11:26.808Z,3.80
2018-04-15T01:13:53.137Z,3.87
2018-04-15T01:16:19.456Z,3.80
2018-04-15T01:18:45.765Z,4.10
2018-04-15T01:21:12.838Z,4.10
2018-04-15T01:23:40.027Z,3.80
2018-04-15T01:26:06.345Z,4.13
2018-04-15T01:28:33.423Z,3.40
2018-04-15T01:31:00.054Z,3.33
2018-04-15T01:33:26.354Z,4.13
2018-04-15T01:35:52.632Z,3.50
2018-04-15T01:38:19.657Z,3.70
2018-04-15T01:40:46.064Z,3.97
2018-04-15T01:43:12.427Z,3.70
2018-04-15T01:45:39.291Z,3.70
2018-04-15T01:48:05.690Z,3.80
2018-04-15T01:50:32.744Z,3.60
2018-04-15T01:52:59.956Z,4.07
2018-04-15T01:55:26.242Z,3.47
2018-04-15T01:57:52.514Z,3.73
2018-04-15T02:00:18.844Z,3.70
2018-04-15T02:02:45.850Z,4.10
2018-04-15T02:05:12.156Z,3.63
2018-04-15T02:07:39.566Z,3.63
2018-04-15T02:10:05.934Z,3.97
2018-04-15T02:12:32.196Z,3.67
2018-04-15T02:14:59.214Z,3.53
2018-04-15T02:17:25.495Z,3.77
2018-04-15T02:19:54.537Z,3.80
2018-04-15T02:22:20.826Z,3.90
2018-04-15T02:24:47.869Z,3.77
2018-04-15T02:27:14.208Z,3.30
2018-04-15T02:29:40.542Z,3.73
2018-04-15T02:32:10.968Z,3.50
2018-04-15T02:34:37.341Z,3.70
2018-04-15T02:37:03.706Z,3.83
2018-04-15T02:39:30.888Z,3.40
2018-04-15T02:41:58.001Z,3.90
2018-04-15T02:44:24.292Z,3.67
2018-04-15T02:46:51.319Z,3.67
2018-04-15T02:49:17.587Z,3.77
2018-04-15T02:51:44.698Z,3.53
2018-04-15T02:54:11.023Z,3.80
2018-04-15T02:56:37.307Z,3.63
2018-04-15T02:59:03.617Z,3.50
2018-04-15T03:01:29.919Z,4.00
2018-04-15T03:03:56.934Z,3.53
2018-04-15T03:06:23.184Z,3.60
2018-04-15T03:08:49.466Z,3.60
2018-04-15T03:11:16.485Z,3.43
2018-04-15T03:13:42.806Z,3.33
2018-04-15T03:16:09.096Z,3.23
2018-04-15T03:18:36.353Z,3.30
2018-04-15T03:21:03.393Z,2.90
2018-04-15T03:23:29.702Z,3.10
2018-04-15T03:25:56.071Z,3.70
2018-04-15T03:28:23.238Z,3.40
2018-04-15T03:30:49.556Z,3.80
2018-04-15T03:33:15.830Z,3.37
2018-04-15T03:35:42.133Z,3.17
2018-04-15T03:38:08.501Z,3.37
2018-04-15T03:40:34.967Z,3.70
2018-04-15T03:43:01.242Z,2.93
2018-04-15T03:45:27.531Z,3.70
2018-04-15T03:47:54.918Z,3.33
2018-04-15T03:50:21.242Z,2.97
2018-04-15T03:52:47.543Z,3.40
2018-04-15T03:55:14.576Z,3.37
2018-04-15T03:57:40.964Z,3.70
2018-04-15T04:00:07.349Z,3.57
2018-04-15T04:02:34.812Z,3.60
2018-04-15T04:05:01.045Z,3.70
2018-04-15T04:07:27.305Z,3.37
2018-04-15T04:09:54.017Z,3.50
2018-04-15T04:12:20.293Z,3.03
2018-04-15T04:14:46.679Z,3.50
2018-04-15T04:17:13.643Z,3.30
2018-04-15T04:19:52.199Z,3.50
2018-04-15T04:36:04.029Z,3.60
2018-04-15T04:38:30.932Z,3.40
2018-04-15T04:40:57.182Z,3.60
2018-04-15T04:43:23.389Z,3.37
2018-04-15T04:45:49.551Z,3.17
2018-04-15T04:48:15.749Z,2.77
2018-04-15T04:50:41.951Z,3.43
2018-04-15T04:53:08.124Z,3.40
2018-04-15T04:55:34.353Z,3.47
2018-04-15T04:58:00.534Z,3.60
2018-04-15T05:00:26.688Z,3.80
2018-04-15T05:02:52.874Z,3.60
2018-04-15T05:05:19.042Z,3.60
2018-04-15T05:07:45.241Z,2.93
2018-04-15T05:10:11.490Z,3.50
2018-04-15T05:12:37.746Z,3.10
2018-04-15T05:15:04.828Z,3.53
2018-04-15T05:17:31.037Z,3.80
2018-04-15T05:19:57.198Z,3.10
2018-04-15T05:22:24.287Z,3.60
2018-04-15T05:24:50.443Z,2.87
2018-04-15T05:27:16.685Z,3.30
2018-04-15T05:29:42.941Z,3.00
2018-04-15T05:32:09.733Z,3.53
2018-04-15T05:34:36.688Z,3.37
2018-04-15T05:37:03.641Z,4.00
2018-04-15T05:39:30.571Z,3.90
2018-04-15T05:41:56.747Z,3.30
2018-04-15T05:44:23.711Z,3.20
2018-04-15T05:46:49.879Z,4.43
2018-04-15T05:49:16.142Z,4.13
2018-04-15T05:51:42.331Z,3.93
2018-04-15T05:54:09.254Z,3.50
2018-04-15T05:56:35.483Z,3.97
2018-04-15T05:59:01.711Z,3.10
2018-04-15T06:01:27.918Z,3.13
2018-04-15T06:03:54.827Z,3.13
2018-04-15T06:06:21.090Z,3.17
2018-04-15T06:08:47.264Z,3.50
2018-04-15T06:11:13.593Z,3.33
2018-04-15T06:13:39.769Z,3.30
2018-04-15T06:16:07.995Z,2.97
2018-04-15T06:18:34.974Z,3.03
2018-04-15T06:21:01.157Z,3.40
2018-04-15T06:23:27.344Z,6.00
2018-04-15T06:25:54.233Z,3.13
2018-04-15T06:28:20.428Z,2.90
2018-04-15T06:30:46.592Z,2.87
2018-04-15T06:33:12.777Z,3.00
2018-04-15T06:35:38.952Z,2.90
2018-04-15T06:38:05.648Z,2.50
2018-04-15T06:40:31.838Z,2.37
2018-04-15T06:42:58.060Z,2.60
2018-04-15T06:45:24.185Z,2.67
2018-04-15T06:47:50.360Z,2.63
2018-04-15T06:50:18.247Z,2.80
2018-04-15T06:52:45.141Z,3.17
2018-04-15T06:55:11.372Z,3.00
2018-04-15T06:57:37.539Z,3.40
2018-04-15T07:00:03.744Z,2.93
2018-04-15T07:02:29.957Z,3.40
2018-04-15T07:04:56.111Z,2.80
2018-04-15T07:07:23.820Z,3.00
2018-04-15T07:09:50.716Z,2.83
2018-04-15T07:12:16.963Z,3.77
2018-04-15T07:14:43.992Z,3.63
2018-04-15T07:17:14.636Z,3.07
2018-04-15T07:19:40.851Z,3.50
2018-04-15T07:22:07.720Z,3.87
2018-04-15T07:24:33.917Z,4.13
2018-04-15T07:27:00.863Z,3.93
2018-04-15T07:29:27.026Z,4.10
2018-04-15T07:31:53.969Z,3.70
2018-04-15T07:34:20.124Z,3.10
2018-04-15T07:36:47.214Z,3.40
2018-04-15T07:39:13.376Z,3.20
2018-04-15T07:41:39.580Z,3.80
2018-04-15T07:44:05.812Z,3.43
2018-04-15T07:46:32.013Z,3.53
2018-04-15T07:48:58.819Z,3.83
2018-04-15T07:51:25.015Z,5.50
2018-04-15T07:53:51.174Z,3.70
2018-04-15T07:56:18.269Z,3.47
2018-04-15T07:58:45.177Z,2.87
2018-04-15T08:01:11.353Z,3.80
2018-04-15T08:03:37.557Z,4.20
2018-04-15T08:06:04.661Z,2.80
2018-04-15T08:08:30.849Z,2.87
2018-04-15T08:10:56.988Z,3.53
2018-04-15T08:13:23.162Z,4.90
2018-04-15T08:15:50.055Z,4.07
2018-04-15T08:18:16.212Z,4.30
2018-04-15T08:20:42.420Z,3.27
2018-04-15T08:23:08.672Z,3.00
2018-04-15T08:25:34.907Z,3.07
2018-04-15T08:28:01.129Z,3.03
2018-04-15T08:30:27.303Z,3.37
2018-04-15T08:32:53.478Z,3.53
2018-04-15T08:35:19.633Z,6.07
2018-04-15T08:37:46.550Z,5.97
2018-04-15T08:40:12.805Z,3.17
2018-04-15T08:42:39.152Z,3.00
2018-04-15T08:45:06.173Z,4.27
2018-04-15T08:47:34.581Z,6.43
2018-04-15T08:50:01.436Z,4.20
2018-04-15T08:52:32.066Z,2.57
2018-04-15T08:54:58.283Z,2.80
2018-04-15T08:57:24.558Z,2.50
2018-04-15T08:59:50.865Z,4.37
2018-04-15T09:02:17.125Z,3.87
2018-04-15T09:04:43.548Z,4.43
2018-04-15T09:07:10.665Z,2.30
2018-04-15T09:09:37.754Z,4.47
2018-04-15T09:12:19.395Z,3.67
2018-04-15T09:14:45.703Z,3.10
2018-04-15T09:17:11.972Z,3.70
2018-04-15T09:19:38.440Z,2.40
2018-04-15T09:22:04.930Z,3.23
2018-04-15T09:24:31.303Z,3.43
2018-04-15T09:26:57.565Z,3.70
2018-04-15T09:29:23.841Z,3.70
2018-04-15T09:31:50.254Z,3.90
2018-04-15T09:34:16.532Z,3.23
2018-04-15T09:36:42.830Z,2.70
2018-04-15T09:39:09.155Z,3.10
2018-04-15T09:41:35.437Z,3.97
2018-04-15T09:44:01.791Z,2.30
2018-04-15T09:46:28.115Z,2.30
2018-04-15T09:48:54.400Z,2.97
2018-04-15T09:51:21.491Z,3.70
2018-04-15T09:53:49.803Z,3.70
2018-04-15T09:56:16.111Z,3.13
2018-04-15T09:58:42.418Z,3.57
2018-04-15T10:01:09.139Z,4.27
2018-04-15T10:03:35.588Z,2.77
2018-04-15T10:06:02.664Z,3.13
2018-04-15T10:08:29.529Z,2.33
2018-04-15T10:11:01.787Z,2.30
2018-04-15T10:13:28.114Z,2.30
2018-04-15T10:15:54.416Z,1.80
2018-04-15T10:18:21.449Z,2.70
2018-04-15T10:20:47.762Z,3.20
2018-04-15T10:23:18.735Z,2.93
2018-04-15T10:25:45.173Z,3.17
2018-04-15T10:28:11.495Z,3.33
2018-04-15T10:30:37.989Z,2.63
2018-04-15T10:33:05.133Z,2.63
2018-04-15T10:35:31.438Z,3.93
2018-04-15T10:37:57.731Z,3.20
2018-04-15T10:40:24.365Z,3.63
2018-04-15T10:42:50.672Z,2.60
2018-04-15T10:45:32.630Z,2.50
2018-04-15T10:47:58.932Z,3.60
2018-04-15T10:50:26.609Z,3.20
2018-04-15T10:52:53.170Z,4.87
2018-04-15T10:55:20.021Z,2.43
2018-04-15T10:57:47.441Z,3.30
2018-04-15T11:00:13.843Z,3.33
2018-04-15T11:02:40.440Z,4.80
2018-04-15T11:05:07.649Z,2.77
2018-04-15T11:07:34.405Z,2.10
2018-04-15T11:10:00.938Z,3.10
2018-04-15T11:12:27.414Z,2.73
2018-04-15T11:14:53.800Z,4.10
2018-04-15T11:17:21.016Z,3.63
2018-04-15T11:19:48.844Z,3.57
2018-04-15T11:22:15.406Z,2.30
2018-04-15T11:24:41.915Z,2.20
2018-04-15T11:27:08.444Z,3.10
2018-04-15T11:29:35.107Z,2.97
2018-04-15T11:32:01.523Z,3.00
2018-04-15T11:34:28.849Z,3.37
2018-04-15T11:36:56.070Z,2.97
2018-04-15T11:39:22.539Z,3.40
2018-04-15T11:41:49.074Z,3.50
2018-04-15T11:44:15.488Z,2.50
2018-04-15T11:46:41.986Z,2.03
2018-04-15T11:49:10.912Z,3.00
2018-04-15T11:51:37.427Z,2.93
2018-04-15T11:54:03.763Z,2.30
2018-04-15T11:56:30.121Z,2.73
2018-04-15T11:58:56.462Z,2.60
2018-04-15T12:01:22.711Z,2.70
2018-04-15T12:03:48.998Z,2.93
2018-04-15T12:06:15.324Z,2.27
2018-04-15T12:08:41.719Z,2.50
2018-04-15T12:11:08.860Z,2.67
2018-04-15T12:13:35.334Z,2.50
2018-04-15T12:16:02.394Z,2.63
2018-04-15T12:18:28.712Z,2.47
2018-04-15T12:20:55.026Z,2.50
2018-04-15T12:23:23.089Z,2.27
2018-04-15T12:25:49.520Z,2.20
2018-04-15T12:28:16.731Z,2.50
2018-04-15T12:30:43.113Z,2.20
2018-04-15T12:33:10.357Z,2.40
2018-04-15T12:35:36.819Z,2.50
2018-04-15T12:38:03.900Z,2.20
2018-04-15T12:40:30.875Z,2.10
2018-04-15T12:42:57.631Z,2.67
2018-04-15T12:45:24.685Z,2.10
2018-04-15T12:47:51.029Z,2.13
2018-04-15T12:50:17.912Z,2.30
2018-04-15T12:52:44.202Z,2.30
2018-04-15T12:55:10.594Z,2.20
2018-04-15T12:57:37.093Z,1.80
2018-04-15T13:00:04.834Z,2.27
2018-04-15T13:02:31.196Z,1.90
2018-04-15T13:05:01.025Z,1.53
2018-04-15T13:07:37.628Z,1.80
2018-04-15T13:10:03.975Z,2.10
2018-04-15T13:12:35.513Z,2.43
2018-04-15T13:15:01.878Z,2.30
2018-04-15T13:17:28.191Z,3.10
2018-04-15T13:19:54.501Z,2.17
2018-04-15T13:22:21.576Z,2.23
2018-04-15T13:24:53.160Z,1.80
2018-04-15T13:27:27.364Z,2.40
2018-04-15T13:29:53.969Z,2.00
2018-04-15T13:32:21.368Z,2.53
2018-04-15T13:34:52.147Z,2.67
2018-04-15T13:37:18.468Z,2.43
2018-04-15T13:39:49.278Z,3.00
2018-04-15T13:42:15.828Z,2.80
2018-04-15T13:44:48.130Z,2.00
2018-04-15T13:47:14.495Z,2.70
2018-04-15T13:49:41.576Z,2.60
2018-04-15T13:52:09.034Z,2.00
2018-04-15T13:54:35.496Z,2.30
2018-04-15T13:57:02.412Z,1.70
2018-04-15T13:59:29.763Z,1.53
2018-04-15T14:01:56.966Z,1.40
2018-04-15T14:04:23.326Z,1.30
2018-04-15T14:06:49.883Z,1.90
2018-04-15T14:09:26.622Z,2.00
2018-04-15T14:11:53.041Z,1.50
2018-04-15T14:14:22.735Z,1.70
2018-04-15T14:16:49.438Z,1.43
2018-04-15T14:19:17.143Z,1.60
2018-04-15T14:21:43.702Z,1.13
2018-04-15T14:24:11.221Z,2.23
2018-04-15T14:26:41.193Z,1.70
2018-04-15T14:29:08.732Z,1.60
2018-04-15T14:31:35.074Z,2.00
2018-04-15T14:34:03.623Z,1.27
2018-04-15T14:36:32.218Z,1.57
2018-04-15T14:38:59.111Z,1.53
2018-04-15T14:41:27.351Z,1.90
2018-04-15T14:43:53.889Z,1.50
2018-04-15T14:46:22.359Z,1.50
2018-04-15T14:48:49.054Z,1.60
2018-04-15T14:51:16.272Z,1.50
2018-04-15T14:53:42.897Z,1.60
2018-04-15T14:56:10.369Z,1.37
2018-04-15T14:58:39.912Z,1.50
2018-04-15T15:01:06.402Z,1.30
2018-04-15T15:03:32.847Z,1.33
2018-04-15T15:05:59.629Z,1.40
2018-04-15T15:08:26.855Z,1.27
2018-04-15T15:10:56.053Z,1.37
2018-04-15T15:13:24.769Z,1.57
2018-04-15T15:15:51.409Z,1.20
2018-04-15T15:18:21.032Z,1.30
2018-04-15T15:20:48.189Z,1.63
2018-04-15T15:23:14.512Z,1.50
2018-04-15T15:25:42.287Z,1.50
2018-04-15T15:28:09.645Z,1.50
2018-04-15T15:30:38.037Z,1.60
2018-04-15T15:33:05.688Z,2.30
2018-04-15T15:35:35.402Z,1.57
2018-04-15T15:38:04.054Z,2.07
2018-04-15T15:40:30.603Z,1.80
2018-04-15T15:42:57.154Z,1.57
2018-04-15T15:45:24.759Z,1.53
2018-04-15T15:47:56.928Z,1.53
2018-04-15T15:50:23.597Z,1.50
2018-04-15T15:52:50.251Z,1.50
2018-04-15T15:55:16.705Z,1.63
2018-04-15T15:57:43.189Z,1.70
2018-04-15T16:00:10.277Z,1.53
2018-04-15T16:02:37.888Z,1.67
2018-04-15T16:05:04.453Z,1.60
2018-04-15T16:07:31.480Z,1.73
2018-04-15T16:10:05.395Z,1.40
2018-04-15T16:12:31.873Z,1.47
2018-04-15T16:14:58.336Z,1.30
2018-04-15T16:17:24.688Z,1.50
2018-04-15T16:19:51.035Z,1.27
2018-04-15T16:22:18.796Z,1.40
2018-04-15T16:24:45.149Z,1.60
2018-04-15T16:27:11.546Z,1.37
2018-04-15T16:29:38.682Z,1.33
2018-04-15T16:32:05.188Z,1.40
2018-04-15T16:34:31.493Z,1.40
2018-04-15T16:36:58.679Z,2.00
2018-04-15T16:39:24.998Z,1.50
2018-04-15T16:41:51.300Z,1.40
2018-04-15T16:44:17.588Z,1.53
2018-04-15T16:46:44.116Z,1.40
2018-04-15T16:49:10.565Z,1.40
2018-04-15T16:51:36.933Z,1.40
2018-04-15T16:54:04.352Z,1.47
2018-04-15T16:56:30.633Z,1.70
2018-04-15T16:58:56.918Z,1.50
2018-04-15T17:01:24.377Z,1.13
2018-04-15T17:03:50.930Z,1.20
2018-04-15T17:06:17.365Z,1.20
2018-04-15T17:08:43.900Z,1.40
2018-04-15T17:11:11.395Z,1.30
2018-04-15T17:13:38.088Z,1.10
2018-04-15T17:16:06.308Z,1.47
2018-04-15T17:18:33.912Z,1.30
2018-04-15T17:21:01.721Z,1.33
2018-04-15T17:23:29.138Z,1.40
2018-04-15T17:25:56.261Z,0.90
2018-04-15T17:28:23.123Z,1.17
2018-04-15T17:30:49.568Z,1.00
2018-04-15T17:33:17.424Z,1.30
2018-04-15T17:35:44.774Z,1.20
2018-04-15T17:38:13.256Z,1.20
2018-04-15T17:40:39.648Z,1.10
2018-04-15T17:43:07.273Z,1.40
2018-04-15T17:45:33.780Z,1.10
2018-04-15T17:48:00.288Z,1.20
2018-04-15T17:50:26.614Z,2.27
2018-04-15T17:52:53.419Z,2.70
2018-04-15T17:55:20.650Z,2.70
2018-04-15T17:57:47.295Z,2.90
2018-04-15T18:00:14.226Z,2.60
2018-04-15T18:02:41.067Z,2.63
2018-04-15T18:05:07.800Z,2.20
2018-04-15T18:07:34.453Z,2.57
2018-04-15T18:10:01.263Z,2.50
2018-04-15T18:12:28.519Z,3.27
2018-04-15T18:14:55.670Z,2.60
2018-04-15T18:17:23.560Z,2.33
2018-04-15T18:19:50.695Z,2.73
2018-04-15T18:22:17.306Z,3.30
2018-04-15T18:24:44.616Z,3.27
2018-04-15T18:27:11.151Z,3.73
2018-04-15T18:29:37.646Z,3.40
2018-04-15T18:32:04.677Z,3.60
2018-04-15T18:34:36.020Z,4.07
2018-04-15T18:37:04.154Z,3.70
2018-04-15T18:39:35.203Z,3.63
2018-04-15T18:42:03.071Z,3.90
2018-04-15T18:44:30.604Z,4.10
2018-04-15T18:46:57.907Z,3.10
2018-04-15T18:49:24.392Z,3.13
2018-04-15T18:51:53.427Z,3.43
2018-04-15T18:54:20.026Z,4.23
2018-04-15T18:56:46.757Z,4.27
2018-04-15T18:59:13.184Z,5.17
2018-04-15T19:01:40.296Z,5.43
2018-04-15T19:04:10.019Z,5.80
2018-04-15T19:06:36.775Z,6.30
2018-04-15T19:09:03.473Z,6.03
2018-04-15T19:11:29.905Z,5.90
2018-04-15T19:13:56.352Z,6.43
2018-04-15T19:16:23.010Z,7.00
2018-04-15T19:18:49.414Z,7.37
2018-04-15T19:21:16.990Z,7.10
2018-04-15T19:23:43.535Z,6.17
2018-04-15T19:26:09.993Z,6.40
2018-04-15T19:28:36.985Z,5.70
2018-04-15T19:31:03.589Z,6.30
2018-04-15T19:33:30.873Z,8.10
2018-04-15T19:35:59.319Z,6.53
2018-04-15T19:38:26.003Z,5.50
2018-04-15T19:40:52.516Z,5.60
2018-04-15T19:43:18.938Z,5.27
2018-04-15T19:45:45.449Z,5.50
2018-04-15T19:48:12.784Z,5.53
2018-04-15T19:50:39.451Z,6.37
2018-04-15T19:53:07.062Z,5.60
2018-04-15T19:55:34.382Z,6.90
2018-04-15T19:58:01.123Z,5.40
2018-04-15T20:00:29.911Z,5.43
2018-04-15T20:03:06.048Z,6.97
2018-04-15T20:05:36.671Z,7.90
2018-04-15T20:08:04.824Z,8.00
2018-04-15T20:10:31.482Z,6.80
2018-04-15T20:12:58.936Z,5.60
2018-04-15T20:15:26.725Z,5.60
2018-04-15T20:17:56.289Z,5.90
2018-04-15T20:20:27.788Z,5.43
2018-04-15T20:22:54.513Z,5.70
2018-04-15T20:25:21.700Z,5.13
2018-04-15T20:27:48.996Z,4.53
2018-04-15T20:30:15.507Z,4.67
2018-04-15T20:32:41.903Z,5.43
2018-04-15T20:35:10.321Z,6.37
2018-04-15T20:37:37.048Z,5.10
2018-04-15T20:40:06.748Z,5.70
2018-04-15T20:42:33.507Z,6.90
2018-04-15T20:44:59.929Z,6.00
2018-04-15T20:47:29.700Z,6.07
2018-04-15T20:50:01.153Z,6.10
2018-04-15T20:52:28.372Z,7.30
2018-04-15T20:55:05.245Z,5.93
2018-04-15T20:57:31.839Z,6.30
2018-04-15T20:59:58.192Z,7.40
2018-04-15T21:02:24.517Z,16.07
2018-04-15T21:04:50.940Z,19.47
2018-04-15T21:07:17.268Z,10.03
2018-04-15T21:09:43.797Z,7.00
2018-04-15T21:12:11.021Z,6.33
2018-04-15T21:14:41.635Z,7.00
2018-04-15T21:17:08.330Z,7.30
2018-04-15T21:19:36.256Z,5.90
2018-04-15T21:22:03.326Z,7.03
2018-04-15T21:24:36.492Z,7.13
2018-04-15T21:27:04.757Z,7.23
2018-04-15T21:29:34.500Z,6.87
2018-04-15T21:32:06.226Z,6.80
2018-04-15T21:34:34.764Z,8.70
2018-04-15T21:37:01.757Z,7.33
2018-04-15T21:39:28.980Z,10.20
2018-04-15T21:42:03.495Z,10.33
2018-04-15T21:44:30.658Z,9.63
2018-04-15T21:46:57.012Z,7.57
2018-04-15T21:49:23.407Z,7.03
2018-04-15T21:51:49.776Z,6.93
2018-04-15T21:54:16.271Z,6.73
2018-04-15T21:56:42.773Z,8.47
2018-04-15T21:59:10.217Z,7.80
2018-04-15T22:01:37.383Z,8.27
2018-04-15T22:04:03.682Z,7.90
2018-04-15T22:06:30.741Z,7.93
2018-04-15T22:08:57.111Z,8.93
2018-04-15T22:14:27.068Z,8.77
2018-04-15T22:16:53.245Z,10.23
2018-04-15T22:19:19.417Z,8.67
2018-04-15T22:21:46.321Z,9.23
2018-04-15T22:24:13.284Z,8.73
2018-04-15T22:26:41.496Z,8.20
2018-04-15T22:29:07.785Z,8.10
2018-04-15T22:31:34.059Z,9.00
2018-04-15T22:34:00.278Z,8.20
2018-04-15T22:36:27.241Z,7.60
2018-04-15T22:38:54.179Z,7.40
2018-04-15T22:41:21.082Z,8.43
2018-04-15T22:43:47.277Z,10.73
2018-04-15T22:46:14.163Z,9.87
2018-04-15T22:48:44.917Z,14.00
2018-04-15T22:51:11.158Z,13.53
2018-04-15T22:53:37.401Z,11.07
2018-04-15T22:56:08.652Z,13.07
2018-04-15T22:58:41.724Z,13.20
2018-04-15T23:01:08.033Z,12.40
2018-04-15T23:03:34.245Z,10.00
2018-04-15T23:06:00.402Z,9.00
2018-04-15T23:08:26.551Z,7.37
2018-04-15T23:10:52.766Z,7.37
2018-04-15T23:13:19.030Z,7.93
2018-04-15T23:15:45.215Z,8.90
2018-04-15T23:18:11.399Z,8.80
2018-04-15T23:20:39.860Z,9.77
2018-04-15T23:23:06.232Z,8.83
2018-04-15T23:25:32.440Z,9.83
2018-04-15T23:28:02.980Z,7.17
2018-04-15T23:30:29.881Z,8.47
2018-04-15T23:32:57.170Z,9.47
2018-04-15T23:35:23.358Z,9.63
2018-04-15T23:37:50.281Z,9.17
2018-04-15T23:40:16.507Z,8.47
2018-04-15T23:42:42.694Z,8.10
2018-04-15T23:45:09.622Z,11.73
2018-04-15T23:47:35.988Z,10.07
2018-04-15T23:50:02.189Z,9.80
2018-04-15T23:52:28.415Z,9.60
2018-04-15T23:54:54.667Z,10.20
2018-04-15T23:57:20.885Z,9.30
2018-04-15T23:59:55.730Z,8.50
